Martock, United Kingdom
Current Conditions -  °F | °C
As of 10:50 AM on Wednesday 22 Oct 2014 (Local Time) from EGDY Reporting Station
Scattered Clouds Scattered Clouds  
Wind Chill: 54°   Ceiling: Unl
Heat Index: 54°   Visibility: 6mi
Dew Point: 45°   Wind: 3mph
Humidity: 72%   Direction: 260°W
Pressure: 30.33"   Gusts: NA
Location:  50.97°N, 2.77°W
Report Text: EGDY 220950Z 26003KT 9999 FEW030 SCT040 12/07 Q1027 BLU NOSIG
Loading
Personal Weather Stations






























Interactive Weather Map
Tropical Storm Tracking
New forecast layout! Learn more

10-Day Weather Forecast

Advertisements
Track Severe Weather on mobile